| time (UTC) | temp C | wind direction | speed KPH | gust KPH | rain 1hr cm | rain 24hr cm | rain mn cm | humidity % | barometer mb |
| 20260505010520 | 21 | 213 | 4.8 | 11.3 | 0.00 | 0.00 | 0.00 | 54 | 1005.5 |
| 20260505010020 | 21 | 190 | 4.8 | 11.3 | 0.00 | 0.00 | 0.00 | 54 | 1005.5 |
| 20260505005520 | 21 | 254 | 4.8 | 11.3 | 0.00 | 0.00 | 0.00 | 53 | 1005.5 |
| 20260505005021 | 21 | 196 | 3.2 | 12.9 | 0.00 | 0.00 | 0.00 | 53 | 1005.5 |
| 20260505004521 | 21 | 206 | 6.4 | 12.9 | 0.00 | 0.00 | 0.00 | 52 | 1005.4 |
| 20260505004018 | 21 | 245 | 4.8 | 16.1 | 0.00 | 0.00 | 0.00 | 52 | 1005.5 |
| 20260505003521 | 21 | 179 | 4.8 | 16.1 | 0.00 | 0.00 | 0.00 | 52 | 1005.5 |
| 20260505003018 | 22 | 180 | 4.8 | 16.1 | 0.00 | 0.00 | 0.00 | 51 | 1005.5 |
| 20260505002518 | 22 | 190 | 4.8 | 16.1 | 0.00 | 0.00 | 0.00 | 51 | 1005.5 |
| 20260505002018 | 22 | 184 | 4.8 | 12.9 | 0.00 | 0.00 | 0.00 | 51 | 1005.6 |
| 20260505001518 | 22 | 203 | 4.8 | 12.9 | 0.00 | 0.00 | 0.00 | 50 | 1005.7 |
| 20260505001016 | 22 | 234 | 3.2 | 11.3 | 0.00 | 0.00 | 0.00 | 50 | 1005.7 |
| 20260505000519 | 22 | 188 | 3.2 | 11.3 | 0.00 | 0.00 | 0.00 | 49 | 1005.8 |
| 20260505000022 | 22 | 221 | 3.2 | 11.3 | 0.00 | 0.00 | 0.00 | 49 | 1005.8 |
| 20260504235516 | 22 | 243 | 6.4 | 19.3 | 0.00 | 0.00 | 0.00 | 48 | 1005.8 |
| 20260504235016 | 23 | 294 | 6.4 | 19.3 | 0.00 | 0.00 | 0.00 | 49 | 1005.8 |
| 20260504234516 | 23 | 190 | 6.4 | 20.9 | 0.00 | 0.00 | 0.00 | 48 | 1005.8 |
| 20260504234015 | 23 | 184 | 6.4 | 19.3 | 0.00 | 0.00 | 0.00 | 49 | 1005.8 |
| 20260504233515 | 23 | 233 | 6.4 | 24.1 | 0.00 | 0.00 | 0.00 | 47 | 1005.9 |
| 20260504233015 | 23 | 255 | 8.0 | 24.1 | 0.00 | 0.00 | 0.00 | 47 | 1005.9 |
| 20260504232516 | 23 | 284 | 8.0 | 19.3 | 0.00 | 0.00 | 0.00 | 47 | 1006.0 |
| 20260504232015 | 23 | 183 | 9.7 | 19.3 | 0.00 | 0.00 | 0.00 | 47 | 1005.9 |
| 20260504231514 | 23 | 224 | 4.8 | 20.9 | 0.00 | 0.00 | 0.00 | 47 | 1005.9 |
| 20260504231017 | 23 | 138 | 8.0 | 22.5 | 0.00 | 0.00 | 0.00 | 47 | 1005.9 |
| 20260504230513 | 23 | 180 | 12.9 | 22.5 | 0.00 | 0.00 | 0.00 | 47 | 1006.1 |
| 20260504230012 | 23 | 205 | 6.4 | 19.3 | 0.00 | 0.00 | 0.00 | 50 | 1006.2 |
| 20260504225511 | 23 | 184 | 9.7 | 17.7 | 0.00 | 0.00 | 0.00 | 51 | 1006.2 |
| 20260504225012 | 23 | 217 | 6.4 | 17.7 | 0.00 | 0.00 | 0.00 | 52 | 1006.2 |
| 20260504224511 | 23 | 301 | 3.2 | 11.3 | 0.00 | 0.00 | 0.00 | 54 | 1006.1 |
| 20260504224013 | 23 | 236 | 3.2 | 14.5 | 0.00 | 0.00 | 0.00 | 54 | 1006.2 |
| 20260504223511 | 23 | 164 | 6.4 | 16.1 | 0.00 | 0.00 | 0.00 | 53 | 1006.1 |
| 20260504223012 | 23 | 163 | 8.0 | 16.1 | 0.00 | 0.00 | 0.00 | 53 | 1006.1 |
| 20260504222510 | 23 | 185 | 6.4 | 17.7 | 0.00 | 0.00 | 0.00 | 52 | 1006.1 |
| 20260504222010 | 23 | 174 | 6.4 | 17.7 | 0.00 | 0.00 | 0.00 | 52 | 1006.5 |
| 20260504221510 | 23 | 251 | 4.8 | 16.1 | 0.00 | 0.00 | 0.00 | 53 | 1006.6 |
| 20260504221007 | 23 | 209 | 8.0 | 17.7 | 0.00 | 0.00 | 0.00 | 51 | 1006.6 |
| 20260504220509 | 23 | 235 | 4.8 | 14.5 | 0.00 | 0.00 | 0.00 | 52 | 1006.7 |
| 20260504220018 | 23 | 211 | 4.8 | 17.7 | 0.00 | 0.00 | 0.00 | 52 | 1006.7 |
| 20260504215510 | 23 | 188 | 4.8 | 17.7 | 0.00 | 0.00 | 0.00 | 53 | 1006.8 |
| 20260504215010 | 23 | 236 | 4.8 | 14.5 | 0.00 | 0.00 | 0.00 | 52 | 1006.8 |
| 20260504214505 | 23 | 219 | 3.2 | 9.7 | 0.00 | 0.00 | 0.00 | 54 | 1006.9 |
| 20260504214003 | 23 | 285 | 3.2 | 9.7 | 0.00 | 0.00 | 0.00 | 54 | 1006.9 |
| 20260504213503 | 23 | 241 | 3.2 | 11.3 | 0.00 | 0.00 | 0.00 | 53 | 1007.0 |
| 20260504213003 | 23 | 214 | 6.4 | 11.3 | 0.00 | 0.00 | 0.00 | 52 | 1007.1 |
| 20260504212503 | 23 | 225 | 3.2 | 9.7 | 0.00 | 0.00 | 0.00 | 53 | 1007.1 |
| 20260504212004 | 23 | 264 | 3.2 | 11.3 | 0.00 | 0.00 | 0.00 | 53 | 1007.1 |
| 20260504211505 | 22 | 250 | 1.6 | 16.1 | 0.00 | 0.00 | 0.00 | 54 | 1007.1 |
| 20260504211001 | 23 | 309 | 4.8 | 16.1 | 0.00 | 0.00 | 0.00 | 52 | 1007.1 |
| 20260504210502 | 23 | 261 | 4.8 | 14.5 | 0.00 | 0.00 | 0.00 | 51 | 1007.2 |
| 20260504210106 | 23 | 302 | 6.4 | 14.5 | 0.00 | 0.00 | 0.00 | 52 | 1007.3 |
| 20260504205600 | 22 | 216 | 1.6 | 19.3 | 0.00 | 0.00 | 0.00 | 54 | 1007.4 |
| 20260504205059 | 22 | 203 | 6.4 | 19.3 | 0.00 | 0.00 | 0.00 | 51 | 1007.4 |
| 20260504204605 | 23 | 282 | 4.8 | 19.3 | 0.00 | 0.00 | 0.00 | 51 | 1007.5 |
| 20260504204100 | 23 | 183 | 6.4 | 19.3 | 0.00 | 0.00 | 0.00 | 53 | 1007.4 |
| 20260504203558 | 23 | 243 | 4.8 | 16.1 | 0.00 | 0.00 | 0.00 | 53 | 1007.5 |
| 20260504203058 | 23 | 229 | 8.0 | 16.1 | 0.00 | 0.00 | 0.00 | 53 | 1007.5 |
| 20260504202556 | 23 | 215 | 8.0 | 16.1 | 0.00 | 0.00 | 0.00 | 55 | 1007.5 |
| 20260504202057 | 23 | 213 | 4.8 | 27.4 | 0.00 | 0.00 | 0.00 | 57 | 1007.7 |
| 20260504201556 | 22 | 194 | 8.0 | 27.4 | 0.00 | 0.00 | 0.00 | 54 | 1007.7 |
| 20260504201053 | 22 | 259 | 6.4 | 14.5 | 0.00 | 0.00 | 0.00 | 56 | 1007.9 |
| 20260504200554 | 22 | 234 | 6.4 | 20.9 | 0.00 | 0.00 | 0.00 | 55 | 1008.0 |
| 20260504200055 | 22 | 244 | 4.8 | 12.9 | 0.00 | 0.00 | 0.00 | 57 | 1008.1 |
| 20260504195552 | 22 | 215 | 4.8 | 17.7 | 0.00 | 0.00 | 0.00 | 56 | 1008.3 |
| 20260504195052 | 22 | 243 | 8.0 | 22.5 | 0.00 | 0.00 | 0.00 | 58 | 1008.4 |
| 20260504194557 | 21 | 298 | 6.4 | 22.5 | 0.00 | 0.00 | 0.00 | 58 | 1008.6 |
| 20260504194052 | 22 | 292 | 8.0 | 16.1 | 0.00 | 0.00 | 0.00 | 56 | 1008.6 |
| 20260504193551 | 22 | 258 | 4.8 | 16.1 | 0.00 | 0.00 | 0.00 | 58 | 1008.7 |
| 20260504193103 | 22 | 236 | 4.8 | 16.1 | 0.00 | 0.00 | 0.00 | 59 | 1008.8 |
| 20260504192548 | 21 | 257 | 4.8 | 16.1 | 0.00 | 0.00 | 0.00 | 63 | 1008.8 |
| 20260504192050 | 21 | 232 | 4.8 | 14.5 | 0.00 | 0.00 | 0.00 | 64 | 1009.0 |
| 20260504191547 | 20 | 250 | 4.8 | 14.5 | 0.00 | 0.00 | 0.00 | 62 | 1009.1 |
| 20260504191047 | 20 | 257 | 3.2 | 14.5 | 0.00 | 0.00 | 0.00 | 63 | 1009.1 |
| 20260504190547 | 20 | 272 | 6.4 | 22.5 | 0.00 | 0.00 | 0.00 | 62 | 1009.1 |
| 20260504190053 | 20 | 294 | 6.4 | 22.5 | 0.00 | 0.00 | 0.00 | 62 | 1009.1 |
| 20260504185546 | 20 | 238 | 6.4 | 22.5 | 0.00 | 0.00 | 0.00 | 62 | 1009.1 |
| 20260504185040 | 20 | 232 | 8.0 | 24.1 | 0.00 | 0.00 | 0.00 | 60 | 1009.0 |
| 20260504184543 | 20 | 207 | 6.4 | 17.7 | 0.00 | 0.00 | 0.00 | 60 | 1008.9 |
| 20260504184042 | 21 | 209 | 6.4 | 14.5 | 0.00 | 0.00 | 0.00 | 60 | 1008.7 |
| 20260504183540 | 20 | 206 | 3.2 | 24.1 | 0.00 | 0.00 | 0.00 | 61 | 1008.7 |
| 20260504183054 | 20 | 196 | 9.7 | 29.0 | 0.00 | 0.00 | 0.00 | 59 | 1008.6 |
| 20260504182539 | 20 | 186 | 6.4 | 29.0 | 0.00 | 0.00 | 0.00 | 58 | 1008.6 |
| 20260504182039 | 20 | 195 | 8.0 | 24.1 | 0.00 | 0.00 | 0.00 | 59 | 1008.6 |
| 20260504181540 | 20 | 232 | 9.7 | 24.1 | 0.00 | 0.00 | 0.00 | 58 | 1008.6 |
| 20260504181039 | 20 | 185 | 9.7 | 22.5 | 0.00 | 0.00 | 0.00 | 57 | 1008.5 |
| 20260504180541 | 21 | 241 | 6.4 | 19.3 | 0.00 | 0.00 | 0.00 | 61 | 1008.4 |
| 20260504180058 | 20 | 226 | 4.8 | 16.1 | 0.00 | 0.00 | 0.00 | 63 | 1008.5 |
| 20260504175539 | 20 | 243 | 4.8 | 16.1 | 0.00 | 0.00 | 0.00 | 63 | 1008.4 |
| 20260504175037 | 20 | 186 | 6.4 | 16.1 | 0.00 | 0.00 | 0.00 | 64 | 1008.6 |
| 20260504174536 | 20 | 265 | 6.4 | 20.9 | 0.00 | 0.00 | 0.00 | 64 | 1008.6 |
| 20260504174032 | 19 | 157 | 9.7 | 20.9 | 0.00 | 0.00 | 0.00 | 63 | 1008.1 |
| 20260504173532 | 19 | 194 | 8.0 | 14.5 | 0.00 | 0.00 | 0.00 | 63 | 1008.0 |
| 20260504173031 | 19 | 223 | 8.0 | 12.9 | 0.00 | 0.00 | 0.00 | 63 | 1008.4 |
| 20260504172528 | 19 | 202 | 4.8 | 17.7 | 0.00 | 0.00 | 0.00 | 64 | 1008.4 |
| 20260504172028 | 19 | 186 | 6.4 | 14.5 | 0.00 | 0.00 | 0.00 | 63 | 1008.7 |
| 20260504171528 | 18 | 216 | 4.8 | 12.9 | 0.00 | 0.00 | 0.00 | 65 | 1008.8 |
| 20260504171028 | 18 | 176 | 3.2 | 14.5 | 0.00 | 0.00 | 0.00 | 65 | 1008.4 |
| 20260504170527 | 18 | 187 | 8.0 | 14.5 | 0.00 | 0.00 | 0.00 | 62 | 1008.7 |
| 20260504151015 | 17 | 206 | 4.8 | 17.7 | 0.00 | 0.00 | 0.00 | 66 | 1009.4 |
| 20260504150517 | 16 | 177 | 4.8 | 17.7 | 0.00 | 0.00 | 0.00 | 67 | 1009.5 |
| 20260504141005 | 15 | 183 | 4.8 | 19.3 | 0.00 | 0.00 | 0.00 | 71 | 1009.9 |
| 20260504140503 | 15 | 188 | 11.3 | 20.9 | 0.00 | 0.00 | 0.00 | 71 | 1010.1 |
| 20260504130552 | 12 | 202 | 6.4 | 16.1 | 0.00 | 0.00 | 0.00 | 72 | 1010.6 |
| 20260504110532 | 10 | 177 | 3.2 | 8.0 | 0.00 | 0.00 | 0.00 | 70 | 1010.5 |
| 20260504100524 | 10 | 171 | 3.2 | 6.4 | 0.00 | 0.00 | 0.00 | 69 | 1010.5 |
| 20260504081515 | 10 | 162 | 3.2 | 8.0 | 0.00 | 0.00 | 0.00 | 68 | 1011.4 |
| 20260504081015 | 10 | 179 | 3.2 | 6.4 | 0.00 | 0.00 | 0.00 | 67 | 1011.4 |
| 20260504080514 | 10 | 171 | 1.6 | 6.4 | 0.00 | 0.00 | 0.00 | 67 | 1011.5 |
| 20260504060107 | 11 | 191 | 1.6 | 6.4 | 0.00 | 0.00 | 0.00 | 63 | 1012.8 |
| 20260504050554 | 11 | 178 | 1.6 | 8.0 | 0.00 | 0.00 | 0.00 | 63 | 1013.2 |
| 20260504050105 | 11 | 206 | 3.2 | 9.7 | 0.00 | 0.00 | 0.00 | 63 | 1013.2 |
| 20260504045553 | 11 | 169 | 3.2 | 9.7 | 0.00 | 0.00 | 0.00 | 64 | 1013.2 |
| 20260504045053 | 10 | 178 | 1.6 | 4.8 | 0.00 | 0.00 | 0.00 | 64 | 1013.2 |
| 20260504044553 | 11 | 178 | 1.6 | 6.4 | 0.00 | 0.00 | 0.00 | 64 | 1013.2 |
| 20260504044052 | 11 | 164 | 1.6 | 6.4 | 0.00 | 0.00 | 0.00 | 63 | 1013.3 |
| 20260504043557 | 11 | 181 | 1.6 | 6.4 | 0.00 | 0.00 | 0.00 | 63 | 1013.3 |
| 20260504043059 | 11 | 166 | 1.6 | 6.4 | 0.00 | 0.00 | 0.00 | 63 | 1013.4 |
| 20260504042550 | 11 | 184 | 1.6 | 4.8 | 0.00 | 0.00 | 0.00 | 62 | 1013.5 |
| 20260504042053 | 11 | 183 | 1.6 | 4.8 | 0.00 | 0.00 | 0.00 | 61 | 1013.6 |
| 20260504041549 | 11 | 162 | 1.6 | 4.8 | 0.00 | 0.00 | 0.00 | 61 | 1013.6 |
| 20260504041048 | 11 | 192 | 1.6 | 4.8 | 0.00 | 0.00 | 0.00 | 61 | 1013.6 |
| 20260504040548 | 11 | 190 | 0.0 | 8.0 | 0.00 | 0.00 | 0.00 | 60 | 1013.7 |
| 20260504040054 | 11 | 190 | 3.2 | 8.0 | 0.00 | 0.00 | 0.00 | 60 | 1013.8 |
| 20260504035548 | 11 | 204 | 1.6 | 8.0 | 0.00 | 0.00 | 0.00 | 59 | 1013.9 |
| 20260504035049 | 11 | 202 | 4.8 | 9.7 | 0.00 | 0.00 | 0.00 | 59 | 1013.9 |
| 20260504034552 | 12 | 209 | 4.8 | 9.7 | 0.00 | 0.00 | 0.00 | 59 | 1013.9 |
| 20260504034045 | 12 | 196 | 3.2 | 9.7 | 0.00 | 0.00 | 0.00 | 58 | 1014.0 |
| 20260504033545 | 12 | 197 | 3.2 | 9.7 | 0.00 | 0.00 | 0.00 | 58 | 1014.0 |
| 20260504033046 | 12 | 194 | 1.6 | 8.0 | 0.00 | 0.00 | 0.00 | 57 | 1014.0 |
| 20260504032546 | 12 | 178 | 1.6 | 8.0 | 0.00 | 0.00 | 0.00 | 57 | 1014.0 |
| 20260504032048 | 12 | 185 | 3.2 | 8.0 | 0.00 | 0.00 | 0.00 | 57 | 1014.0 |
| 20260504031546 | 12 | 186 | 1.6 | 6.4 | 0.00 | 0.00 | 0.00 | 57 | 1014.2 |
| 20260504031044 | 12 | 188 | 3.2 | 6.4 | 0.00 | 0.00 | 0.00 | 56 | 1014.2 |
| 20260504030544 | 12 | 200 | 1.6 | 4.8 | 0.00 | 0.00 | 0.00 | 55 | 1014.3 |
| 20260504030048 | 12 | 200 | 1.6 | 6.4 | 0.00 | 0.00 | 0.00 | 55 | 1014.2 |
| 20260504025546 | 12 | 210 | 1.6 | 6.4 | 0.00 | 0.00 | 0.00 | 54 | 1014.3 |
| 20260504025047 | 12 | 210 | 1.6 | 8.0 | 0.00 | 0.00 | 0.00 | 54 | 1014.3 |
| 20260504024543 | 12 | 202 | 1.6 | 8.0 | 0.00 | 0.00 | 0.00 | 53 | 1014.3 |
| 20260504024043 | 13 | 190 | 3.2 | 8.0 | 0.00 | 0.00 | 0.00 | 53 | 1014.2 |
| 20260504023545 | 13 | 192 | 3.2 | 8.0 | 0.00 | 0.00 | 0.00 | 52 | 1014.2 |
| 20260504023043 | 13 | 196 | 3.2 | 8.0 | 0.00 | 0.00 | 0.00 | 52 | 1014.3 |
| 20260504022543 | 13 | 198 | 1.6 | 8.0 | 0.00 | 0.00 | 0.00 | 52 | 1014.2 |
| 20260504022047 | 13 | 273 | 1.6 | 8.0 | 0.00 | 0.00 | 0.00 | 51 | 1014.3 |
| 20260504021545 | 13 | 204 | 3.2 | 9.7 | 0.00 | 0.00 | 0.00 | 51 | 1014.2 |
| 20260504021044 | 13 | 202 | 3.2 | 8.0 | 0.00 | 0.00 | 0.00 | 51 | 1014.3 |
| 20260504020542 | 12 | 227 | 4.8 | 8.0 | 0.00 | 0.00 | 0.00 | 51 | 1014.4 |
| 20260504020053 | 12 | 180 | 3.2 | 8.0 | 0.00 | 0.00 | 0.00 | 53 | 1014.1 |
| 20260504015542 | 12 | 158 | 1.6 | 3.2 | 0.00 | 0.00 | 0.00 | 53 | 1014.0 |
| 20260504015042 | 12 | 158 | 0.0 | 0.0 | 0.00 | 0.00 | 0.00 | 53 | 1014.0 |
| 20260504014549 | 12 | 158 | 0.0 | 0.0 | 0.00 | 0.00 | 0.00 | 54 | 1014.0 |
| 20260504014042 | 13 | 158 | 0.0 | 1.6 | 0.00 | 0.00 | 0.00 | 53 | 1014.0 |
| 20260504013541 | 13 | 158 | 0.0 | 1.6 | 0.00 | 0.00 | 0.00 | 52 | 1014.0 |
| 20260504013042 | 13 | 158 | 0.0 | 1.6 | 0.00 | 0.00 | 0.00 | 51 | 1014.0 |
| 20260504012543 | 13 | 158 | 0.0 | 3.2 | 0.00 | 0.00 | 0.00 | 52 | 1014.1 |
| 20260504012041 | 13 | 158 | 0.0 | 3.2 | 0.00 | 0.00 | 0.00 | 49 | 1014.0 |
| 20260504011546 | 13 | 158 | 0.0 | 3.2 | 0.00 | 0.00 | 0.00 | 47 | 1014.0 |
| 20260504011041 | 13 | 158 | 0.0 | 4.8 | 0.00 | 0.00 | 0.00 | 46 | 1014.1 |